sensor_id;sensor_type;location;lat;lon;timestamp;temperature;humidity
65582;DHT22;52231;40.090;18.348;2022-07-29T00:01:52;23.60;86.50
65582;DHT22;52231;40.090;18.348;2022-07-29T00:04:22;23.60;86.60
65582;DHT22;52231;40.090;18.348;2022-07-29T00:06:51;23.60;86.60
65582;DHT22;52231;40.090;18.348;2022-07-29T00:09:20;23.60;86.70
65582;DHT22;52231;40.090;18.348;2022-07-29T00:11:48;23.60;86.80
65582;DHT22;52231;40.090;18.348;2022-07-29T00:14:17;23.50;86.90
65582;DHT22;52231;40.090;18.348;2022-07-29T00:16:45;23.50;86.90
65582;DHT22;52231;40.090;18.348;2022-07-29T00:19:14;23.60;87.00
65582;DHT22;52231;40.090;18.348;2022-07-29T00:21:46;23.50;87.10
65582;DHT22;52231;40.090;18.348;2022-07-29T00:24:14;23.50;87.20
65582;DHT22;52231;40.090;18.348;2022-07-29T00:26:42;23.50;87.30
65582;DHT22;52231;40.090;18.348;2022-07-29T00:29:14;23.40;87.40
65582;DHT22;52231;40.090;18.348;2022-07-29T00:31:59;23.40;87.40
65582;DHT22;52231;40.090;18.348;2022-07-29T00:34:28;23.40;87.40
65582;DHT22;52231;40.090;18.348;2022-07-29T00:37:15;23.40;87.50
65582;DHT22;52231;40.090;18.348;2022-07-29T00:39:44;23.30;87.60
65582;DHT22;52231;40.090;18.348;2022-07-29T00:42:12;23.30;87.60
65582;DHT22;52231;40.090;18.348;2022-07-29T00:44:41;23.40;87.70
65582;DHT22;52231;40.090;18.348;2022-07-29T00:47:13;23.30;87.90
65582;DHT22;52231;40.090;18.348;2022-07-29T00:49:42;23.30;88.00
65582;DHT22;52231;40.090;18.348;2022-07-29T00:52:11;23.30;88.10
65582;DHT22;52231;40.090;18.348;2022-07-29T00:54:42;23.30;88.20
65582;DHT22;52231;40.090;18.348;2022-07-29T00:57:11;23.30;88.20
65582;DHT22;52231;40.090;18.348;2022-07-29T00:59:40;23.30;88.40
65582;DHT22;52231;40.090;18.348;2022-07-29T01:02:09;23.30;88.40
65582;DHT22;52231;40.090;18.348;2022-07-29T01:04:37;23.30;88.50
65582;DHT22;52231;40.090;18.348;2022-07-29T01:07:07;23.30;88.50
65582;DHT22;52231;40.090;18.348;2022-07-29T01:09:37;23.30;88.60
65582;DHT22;52231;40.090;18.348;2022-07-29T01:12:07;23.30;88.60
65582;DHT22;52231;40.090;18.348;2022-07-29T01:14:36;23.30;88.70
65582;DHT22;52231;40.090;18.348;2022-07-29T01:20:07;23.30;88.80
65582;DHT22;52231;40.090;18.348;2022-07-29T01:31:28;23.20;89.10
65582;DHT22;52231;40.090;18.348;2022-07-29T01:34:05;23.20;89.20
65582;DHT22;52231;40.090;18.348;2022-07-29T01:36:47;23.20;89.30
65582;DHT22;52231;40.090;18.348;2022-07-29T01:39:37;23.10;89.40
65582;DHT22;52231;40.090;18.348;2022-07-29T01:47:44;23.10;89.30
65582;DHT22;52231;40.090;18.348;2022-07-29T01:50:16;23.00;89.40
65582;DHT22;52231;40.090;18.348;2022-07-29T01:52:59;23.00;89.40
65582;DHT22;52231;40.090;18.348;2022-07-29T01:55:40;23.00;89.40
65582;DHT22;52231;40.090;18.348;2022-07-29T01:58:11;23.00;89.30
65582;DHT22;52231;40.090;18.348;2022-07-29T02:00:42;23.00;89.40
65582;DHT22;52231;40.090;18.348;2022-07-29T02:03:13;22.90;89.40
65582;DHT22;52231;40.090;18.348;2022-07-29T02:05:44;22.90;89.50
65582;DHT22;52231;40.090;18.348;2022-07-29T02:08:14;22.90;89.40
65582;DHT22;52231;40.090;18.348;2022-07-29T02:11:04;22.90;89.40
65582;DHT22;52231;40.090;18.348;2022-07-29T02:13:34;22.90;89.30
65582;DHT22;52231;40.090;18.348;2022-07-29T02:16:06;22.80;89.30
65582;DHT22;52231;40.090;18.348;2022-07-29T02:18:40;22.80;89.40
65582;DHT22;52231;40.090;18.348;2022-07-29T02:21:11;22.80;89.50
65582;DHT22;52231;40.090;18.348;2022-07-29T02:23:40;22.80;89.60
65582;DHT22;52231;40.090;18.348;2022-07-29T02:26:09;22.80;89.80
65582;DHT22;52231;40.090;18.348;2022-07-29T02:28:39;22.80;89.90
65582;DHT22;52231;40.090;18.348;2022-07-29T02:31:12;22.80;89.90
65582;DHT22;52231;40.090;18.348;2022-07-29T02:33:42;22.70;90.00
65582;DHT22;52231;40.090;18.348;2022-07-29T02:36:14;22.60;90.10
65582;DHT22;52231;40.090;18.348;2022-07-29T02:39:03;22.60;90.10
65582;DHT22;52231;40.090;18.348;2022-07-29T02:41:42;22.60;90.20
65582;DHT22;52231;40.090;18.348;2022-07-29T02:44:30;22.60;90.40
65582;DHT22;52231;40.090;18.348;2022-07-29T02:47:10;22.60;90.40
65582;DHT22;52231;40.090;18.348;2022-07-29T02:50:04;22.60;90.50
65582;DHT22;52231;40.090;18.348;2022-07-29T02:55:23;22.50;90.90
65582;DHT22;52231;40.090;18.348;2022-07-29T03:00:26;22.60;91.20
65582;DHT22;52231;40.090;18.348;2022-07-29T03:02:58;22.60;91.30
65582;DHT22;52231;40.090;18.348;2022-07-29T03:05:26;22.60;91.30
65582;DHT22;52231;40.090;18.348;2022-07-29T03:07:58;22.50;91.30
65582;DHT22;52231;40.090;18.348;2022-07-29T03:10:28;22.50;91.40
65582;DHT22;52231;40.090;18.348;2022-07-29T03:12:57;22.50;91.40
65582;DHT22;52231;40.090;18.348;2022-07-29T03:15:27;22.50;91.50
65582;DHT22;52231;40.090;18.348;2022-07-29T03:17:55;22.50;91.40
65582;DHT22;52231;40.090;18.348;2022-07-29T03:20:25;22.50;91.50
65582;DHT22;52231;40.090;18.348;2022-07-29T03:22:53;22.40;91.60
65582;DHT22;52231;40.090;18.348;2022-07-29T03:25:24;22.40;91.70
65582;DHT22;52231;40.090;18.348;2022-07-29T03:27:54;22.40;91.80
65582;DHT22;52231;40.090;18.348;2022-07-29T03:30:24;22.40;91.90
65582;DHT22;52231;40.090;18.348;2022-07-29T03:32:58;22.40;91.90
65582;DHT22;52231;40.090;18.348;2022-07-29T03:35:26;22.40;92.00
65582;DHT22;52231;40.090;18.348;2022-07-29T03:37:54;22.40;92.00
65582;DHT22;52231;40.090;18.348;2022-07-29T03:40:27;22.40;92.00
65582;DHT22;52231;40.090;18.348;2022-07-29T03:43:00;22.40;92.10
65582;DHT22;52231;40.090;18.348;2022-07-29T03:45:33;22.40;92.10
65582;DHT22;52231;40.090;18.348;2022-07-29T03:48:08;22.40;92.20
65582;DHT22;52231;40.090;18.348;2022-07-29T03:50:37;22.40;92.10
65582;DHT22;52231;40.090;18.348;2022-07-29T03:53:06;22.40;92.00
65582;DHT22;52231;40.090;18.348;2022-07-29T03:55:40;22.40;92.00
65582;DHT22;52231;40.090;18.348;2022-07-29T03:58:10;22.50;92.00
65582;DHT22;52231;40.090;18.348;2022-07-29T04:00:42;22.50;92.10
65582;DHT22;52231;40.090;18.348;2022-07-29T04:03:10;22.60;92.10
65582;DHT22;52231;40.090;18.348;2022-07-29T04:05:39;22.60;92.00
65582;DHT22;52231;40.090;18.348;2022-07-29T04:08:07;22.70;91.90
65582;DHT22;52231;40.090;18.348;2022-07-29T04:10:36;22.80;91.80
65582;DHT22;52231;40.090;18.348;2022-07-29T04:13:05;22.80;91.70
65582;DHT22;52231;40.090;18.348;2022-07-29T04:15:33;22.90;91.60
65582;DHT22;52231;40.090;18.348;2022-07-29T04:18:01;23.00;91.50
65582;DHT22;52231;40.090;18.348;2022-07-29T04:20:29;23.00;91.40
65582;DHT22;52231;40.090;18.348;2022-07-29T04:23:01;23.10;91.40
65582;DHT22;52231;40.090;18.348;2022-07-29T04:25:29;23.60;91.80
65582;DHT22;52231;40.090;18.348;2022-07-29T04:27:57;24.20;91.90
65582;DHT22;52231;40.090;18.348;2022-07-29T04:30:29;24.60;91.20
65582;DHT22;52231;40.090;18.348;2022-07-29T04:32:58;25.10;90.50
65582;DHT22;52231;40.090;18.348;2022-07-29T04:35:27;25.90;89.20
65582;DHT22;52231;40.090;18.348;2022-07-29T04:37:57;26.80;86.10
65582;DHT22;52231;40.090;18.348;2022-07-29T04:40:26;27.70;81.10
65582;DHT22;52231;40.090;18.348;2022-07-29T04:42:55;28.60;76.90
65582;DHT22;52231;40.090;18.348;2022-07-29T04:45:24;29.30;73.40
65582;DHT22;52231;40.090;18.348;2022-07-29T04:47:55;29.80;71.00
65582;DHT22;52231;40.090;18.348;2022-07-29T04:50:23;30.30;68.60
65582;DHT22;52231;40.090;18.348;2022-07-29T04:52:54;30.50;67.30
65582;DHT22;52231;40.090;18.348;2022-07-29T04:55:22;30.70;66.50
65582;DHT22;52231;40.090;18.348;2022-07-29T04:57:50;30.70;66.00
65582;DHT22;52231;40.090;18.348;2022-07-29T05:00:22;30.50;66.40
65582;DHT22;52231;40.090;18.348;2022-07-29T05:02:55;30.30;66.70
65582;DHT22;52231;40.090;18.348;2022-07-29T05:05:33;30.00;67.20
65582;DHT22;52231;40.090;18.348;2022-07-29T05:08:06;29.80;67.80
65582;DHT22;52231;40.090;18.348;2022-07-29T05:10:34;29.70;68.30
65582;DHT22;52231;40.090;18.348;2022-07-29T05:13:06;29.60;68.50
65582;DHT22;52231;40.090;18.348;2022-07-29T05:15:35;29.50;68.60
65582;DHT22;52231;40.090;18.348;2022-07-29T05:18:04;29.50;68.50
65582;DHT22;52231;40.090;18.348;2022-07-29T05:20:33;29.70;68.20
65582;DHT22;52231;40.090;18.348;2022-07-29T05:23:02;29.90;67.30
65582;DHT22;52231;40.090;18.348;2022-07-29T05:25:31;30.10;66.50
65582;DHT22;52231;40.090;18.348;2022-07-29T05:28:01;30.00;66.00
65582;DHT22;52231;40.090;18.348;2022-07-29T05:30:29;30.10;65.60
65582;DHT22;52231;40.090;18.348;2022-07-29T05:32:57;30.30;65.10
65582;DHT22;52231;40.090;18.348;2022-07-29T05:35:26;30.50;63.80
65582;DHT22;52231;40.090;18.348;2022-07-29T05:37:55;30.80;62.00
65582;DHT22;52231;40.090;18.348;2022-07-29T05:40:23;30.90;60.70
65582;DHT22;52231;40.090;18.348;2022-07-29T05:42:51;31.30;59.80
65582;DHT22;52231;40.090;18.348;2022-07-29T05:45:20;31.50;57.00
65582;DHT22;52231;40.090;18.348;2022-07-29T05:47:49;31.70;55.40
65582;DHT22;52231;40.090;18.348;2022-07-29T05:50:18;31.80;55.60
65582;DHT22;52231;40.090;18.348;2022-07-29T05:52:46;32.10;55.30
65582;DHT22;52231;40.090;18.348;2022-07-29T05:55:24;32.30;54.70
65582;DHT22;52231;40.090;18.348;2022-07-29T05:57:52;32.70;53.60
65582;DHT22;52231;40.090;18.348;2022-07-29T06:00:21;32.90;52.60
65582;DHT22;52231;40.090;18.348;2022-07-29T06:02:52;33.00;50.90
65582;DHT22;52231;40.090;18.348;2022-07-29T06:05:20;32.90;50.30
65582;DHT22;52231;40.090;18.348;2022-07-29T06:07:49;32.90;50.30
65582;DHT22;52231;40.090;18.348;2022-07-29T06:10:21;33.10;50.30
65582;DHT22;52231;40.090;18.348;2022-07-29T06:12:49;33.40;49.80
65582;DHT22;52231;40.090;18.348;2022-07-29T06:15:25;33.40;50.40
65582;DHT22;52231;40.090;18.348;2022-07-29T06:18:12;33.60;50.00
65582;DHT22;52231;40.090;18.348;2022-07-29T06:20:41;33.90;48.10
65582;DHT22;52231;40.090;18.348;2022-07-29T06:23:09;33.80;45.60
65582;DHT22;52231;40.090;18.348;2022-07-29T06:25:42;33.50;45.10
65582;DHT22;52231;40.090;18.348;2022-07-29T06:28:17;33.60;45.00
65582;DHT22;52231;40.090;18.348;2022-07-29T06:30:45;33.60;45.00
65582;DHT22;52231;40.090;18.348;2022-07-29T06:33:18;33.80;44.50
65582;DHT22;52231;40.090;18.348;2022-07-29T06:35:55;33.70;44.00
65582;DHT22;52231;40.090;18.348;2022-07-29T06:38:23;33.60;44.30
65582;DHT22;52231;40.090;18.348;2022-07-29T06:40:53;33.70;44.40
65582;DHT22;52231;40.090;18.348;2022-07-29T06:43:35;33.90;44.00
65582;DHT22;52231;40.090;18.348;2022-07-29T06:46:07;34.30;43.00
65582;DHT22;52231;40.090;18.348;2022-07-29T06:48:39;34.70;41.90
65582;DHT22;52231;40.090;18.348;2022-07-29T06:51:09;34.90;41.40
65582;DHT22;52231;40.090;18.348;2022-07-29T06:53:39;35.30;41.10
65582;DHT22;52231;40.090;18.348;2022-07-29T06:56:08;35.10;40.50
65582;DHT22;52231;40.090;18.348;2022-07-29T06:58:39;35.00;41.00
65582;DHT22;52231;40.090;18.348;2022-07-29T07:01:13;34.80;41.60
65582;DHT22;52231;40.090;18.348;2022-07-29T07:03:42;34.90;41.10
65582;DHT22;52231;40.090;18.348;2022-07-29T07:06:10;35.00;40.60
65582;DHT22;52231;40.090;18.348;2022-07-29T07:08:47;35.20;39.70
65582;DHT22;52231;40.090;18.348;2022-07-29T07:11:16;35.30;39.80
65582;DHT22;52231;40.090;18.348;2022-07-29T07:13:44;35.30;40.40
65582;DHT22;52231;40.090;18.348;2022-07-29T07:16:15;35.40;40.20
65582;DHT22;52231;40.090;18.348;2022-07-29T07:18:48;35.30;40.20
65582;DHT22;52231;40.090;18.348;2022-07-29T07:21:16;35.40;40.00
65582;DHT22;52231;40.090;18.348;2022-07-29T07:23:44;35.30;39.50
65582;DHT22;52231;40.090;18.348;2022-07-29T07:26:13;35.40;39.50
65582;DHT22;52231;40.090;18.348;2022-07-29T07:28:42;35.40;39.60
65582;DHT22;52231;40.090;18.348;2022-07-29T07:31:11;35.60;39.70
65582;DHT22;52231;40.090;18.348;2022-07-29T07:33:40;35.80;39.00
65582;DHT22;52231;40.090;18.348;2022-07-29T07:36:09;36.00;38.80
65582;DHT22;52231;40.090;18.348;2022-07-29T07:38:38;36.20;39.10
65582;DHT22;52231;40.090;18.348;2022-07-29T07:41:06;36.60;38.90
65582;DHT22;52231;40.090;18.348;2022-07-29T07:43:35;36.80;38.40
65582;DHT22;52231;40.090;18.348;2022-07-29T07:46:04;36.90;37.10
65582;DHT22;52231;40.090;18.348;2022-07-29T07:48:33;36.90;35.90
65582;DHT22;52231;40.090;18.348;2022-07-29T07:51:03;36.90;35.60
65582;DHT22;52231;40.090;18.348;2022-07-29T07:53:31;37.00;34.80
65582;DHT22;52231;40.090;18.348;2022-07-29T07:56:00;37.20;35.90
65582;DHT22;52231;40.090;18.348;2022-07-29T07:58:37;37.30;36.00
65582;DHT22;52231;40.090;18.348;2022-07-29T08:01:07;37.50;35.10
65582;DHT22;52231;40.090;18.348;2022-07-29T08:03:35;37.50;35.00
65582;DHT22;52231;40.090;18.348;2022-07-29T08:06:04;37.50;34.70
65582;DHT22;52231;40.090;18.348;2022-07-29T08:08:33;37.70;34.80
65582;DHT22;52231;40.090;18.348;2022-07-29T08:11:01;37.60;34.90
65582;DHT22;52231;40.090;18.348;2022-07-29T08:13:54;37.70;35.30
65582;DHT22;52231;40.090;18.348;2022-07-29T08:16:23;38.20;34.10
65582;DHT22;52231;40.090;18.348;2022-07-29T08:18:53;38.20;34.80
65582;DHT22;52231;40.090;18.348;2022-07-29T08:21:28;38.10;34.90
65582;DHT22;52231;40.090;18.348;2022-07-29T08:23:57;38.40;34.00
65582;DHT22;52231;40.090;18.348;2022-07-29T08:26:44;38.30;33.70
65582;DHT22;52231;40.090;18.348;2022-07-29T08:29:13;38.50;34.00
65582;DHT22;52231;40.090;18.348;2022-07-29T08:31:44;38.50;32.90
65582;DHT22;52231;40.090;18.348;2022-07-29T08:34:14;38.60;32.80
65582;DHT22;52231;40.090;18.348;2022-07-29T08:36:42;38.70;32.30
65582;DHT22;52231;40.090;18.348;2022-07-29T08:39:11;38.90;32.50
65582;DHT22;52231;40.090;18.348;2022-07-29T08:41:40;38.80;31.30
65582;DHT22;52231;40.090;18.348;2022-07-29T08:44:09;38.60;32.20
65582;DHT22;52231;40.090;18.348;2022-07-29T08:46:38;38.80;32.70
65582;DHT22;52231;40.090;18.348;2022-07-29T08:49:07;38.80;32.10
65582;DHT22;52231;40.090;18.348;2022-07-29T08:51:36;39.40;31.10
65582;DHT22;52231;40.090;18.348;2022-07-29T08:54:08;39.50;30.10
65582;DHT22;52231;40.090;18.348;2022-07-29T08:56:37;39.40;30.90
65582;DHT22;52231;40.090;18.348;2022-07-29T08:59:08;39.20;31.20
65582;DHT22;52231;40.090;18.348;2022-07-29T09:01:38;39.60;31.60
65582;DHT22;52231;40.090;18.348;2022-07-29T09:04:11;39.90;31.60
65582;DHT22;52231;40.090;18.348;2022-07-29T09:06:47;40.00;30.80
65582;DHT22;52231;40.090;18.348;2022-07-29T09:09:22;40.10;30.30
65582;DHT22;52231;40.090;18.348;2022-07-29T09:11:51;40.20;31.00
65582;DHT22;52231;40.090;18.348;2022-07-29T09:14:24;40.20;31.10
65582;DHT22;52231;40.090;18.348;2022-07-29T09:16:56;40.10;31.50
65582;DHT22;52231;40.090;18.348;2022-07-29T09:19:31;39.70;31.70
65582;DHT22;52231;40.090;18.348;2022-07-29T09:22:04;39.40;30.20
65582;DHT22;52231;40.090;18.348;2022-07-29T09:24:48;39.50;29.80
65582;DHT22;52231;40.090;18.348;2022-07-29T09:27:20;39.80;31.00
65582;DHT22;52231;40.090;18.348;2022-07-29T09:30:10;40.10;29.90
65582;DHT22;52231;40.090;18.348;2022-07-29T09:32:57;40.10;29.50
65582;DHT22;52231;40.090;18.348;2022-07-29T09:35:27;40.40;28.70
65582;DHT22;52231;40.090;18.348;2022-07-29T09:37:56;40.60;30.20
65582;DHT22;52231;40.090;18.348;2022-07-29T09:40:27;40.40;29.30
65582;DHT22;52231;40.090;18.348;2022-07-29T09:43:12;40.50;28.90
65582;DHT22;52231;40.090;18.348;2022-07-29T09:45:42;40.60;29.60
65582;DHT22;52231;40.090;18.348;2022-07-29T09:48:15;40.50;29.90
65582;DHT22;52231;40.090;18.348;2022-07-29T09:50:47;40.90;28.10
65582;DHT22;52231;40.090;18.348;2022-07-29T09:53:37;41.10;27.90
65582;DHT22;52231;40.090;18.348;2022-07-29T09:56:07;41.10;27.50
65582;DHT22;52231;40.090;18.348;2022-07-29T09:58:44;40.80;27.10
65582;DHT22;52231;40.090;18.348;2022-07-29T10:01:15;41.10;26.20
65582;DHT22;52231;40.090;18.348;2022-07-29T10:03:53;41.20;27.10
65582;DHT22;52231;40.090;18.348;2022-07-29T10:06:22;41.20;26.40
65582;DHT22;52231;40.090;18.348;2022-07-29T10:08:51;41.30;26.10
65582;DHT22;52231;40.090;18.348;2022-07-29T10:11:20;41.00;27.00
65582;DHT22;52231;40.090;18.348;2022-07-29T10:13:49;40.80;24.90
65582;DHT22;52231;40.090;18.348;2022-07-29T10:16:17;40.90;26.90
65582;DHT22;52231;40.090;18.348;2022-07-29T10:18:46;41.40;25.90
65582;DHT22;52231;40.090;18.348;2022-07-29T10:21:14;41.40;25.30
65582;DHT22;52231;40.090;18.348;2022-07-29T10:23:43;41.30;25.50
65582;DHT22;52231;40.090;18.348;2022-07-29T10:26:16;41.70;24.60
65582;DHT22;52231;40.090;18.348;2022-07-29T10:28:45;41.70;25.60
65582;DHT22;52231;40.090;18.348;2022-07-29T10:31:27;41.90;24.40
65582;DHT22;52231;40.090;18.348;2022-07-29T10:34:07;41.50;26.80
65582;DHT22;52231;40.090;18.348;2022-07-29T10:42:28;41.80;24.50
65582;DHT22;52231;40.090;18.348;2022-07-29T10:45:17;42.00;24.10
65582;DHT22;52231;40.090;18.348;2022-07-29T10:47:45;42.10;23.80
65582;DHT22;52231;40.090;18.348;2022-07-29T10:50:14;42.30;24.00
65582;DHT22;52231;40.090;18.348;2022-07-29T10:55:40;42.30;24.30
65582;DHT22;52231;40.090;18.348;2022-07-29T10:58:17;42.70;23.40
65582;DHT22;52231;40.090;18.348;2022-07-29T11:00:49;42.40;24.00
65582;DHT22;52231;40.090;18.348;2022-07-29T11:06:13;42.80;23.40
65582;DHT22;52231;40.090;18.348;2022-07-29T11:08:43;42.90;23.20
65582;DHT22;52231;40.090;18.348;2022-07-29T11:13:49;42.10;24.00
65582;DHT22;52231;40.090;18.348;2022-07-29T11:16:20;42.20;23.90
65582;DHT22;52231;40.090;18.348;2022-07-29T11:21:58;42.60;22.90
65582;DHT22;52231;40.090;18.348;2022-07-29T11:24:28;42.90;23.30
65582;DHT22;52231;40.090;18.348;2022-07-29T11:27:12;43.20;23.80
65582;DHT22;52231;40.090;18.348;2022-07-29T11:29:57;43.30;23.50
65582;DHT22;52231;40.090;18.348;2022-07-29T11:32:40;43.20;24.00
65582;DHT22;52231;40.090;18.348;2022-07-29T11:35:13;43.00;23.90
65582;DHT22;52231;40.090;18.348;2022-07-29T11:37:42;42.60;24.90
65582;DHT22;52231;40.090;18.348;2022-07-29T11:40:13;42.70;24.40
65582;DHT22;52231;40.090;18.348;2022-07-29T11:42:44;42.60;23.80
65582;DHT22;52231;40.090;18.348;2022-07-29T11:45:21;42.50;24.90
65582;DHT22;52231;40.090;18.348;2022-07-29T11:47:57;42.40;24.60
65582;DHT22;52231;40.090;18.348;2022-07-29T11:50:33;42.30;25.10
65582;DHT22;52231;40.090;18.348;2022-07-29T11:53:09;42.40;25.20
65582;DHT22;52231;40.090;18.348;2022-07-29T11:55:40;42.50;24.20
65582;DHT22;52231;40.090;18.348;2022-07-29T11:58:28;42.70;23.90
65582;DHT22;52231;40.090;18.348;2022-07-29T12:00:59;43.10;25.00
65582;DHT22;52231;40.090;18.348;2022-07-29T12:03:28;43.20;24.30
65582;DHT22;52231;40.090;18.348;2022-07-29T12:05:57;42.60;24.50
65582;DHT22;52231;40.090;18.348;2022-07-29T12:08:26;42.40;24.30
65582;DHT22;52231;40.090;18.348;2022-07-29T12:11:01;42.20;24.50
65582;DHT22;52231;40.090;18.348;2022-07-29T12:13:38;41.80;25.00
65582;DHT22;52231;40.090;18.348;2022-07-29T12:16:10;41.70;24.30
65582;DHT22;52231;40.090;18.348;2022-07-29T12:18:45;41.80;23.50
65582;DHT22;52231;40.090;18.348;2022-07-29T12:21:22;42.20;24.00
65582;DHT22;52231;40.090;18.348;2022-07-29T12:23:56;42.20;24.30
65582;DHT22;52231;40.090;18.348;2022-07-29T12:26:29;41.40;25.00
65582;DHT22;52231;40.090;18.348;2022-07-29T12:28:58;41.10;26.20
65582;DHT22;52231;40.090;18.348;2022-07-29T12:31:27;41.00;26.60
65582;DHT22;52231;40.090;18.348;2022-07-29T12:33:59;41.10;26.80
65582;DHT22;52231;40.090;18.348;2022-07-29T12:36:28;41.30;26.60
65582;DHT22;52231;40.090;18.348;2022-07-29T12:39:08;41.20;27.00
65582;DHT22;52231;40.090;18.348;2022-07-29T12:41:40;41.10;26.50
65582;DHT22;52231;40.090;18.348;2022-07-29T12:44:14;40.80;27.20
65582;DHT22;52231;40.090;18.348;2022-07-29T12:46:44;40.70;26.80
65582;DHT22;52231;40.090;18.348;2022-07-29T12:49:26;40.40;27.10
65582;DHT22;52231;40.090;18.348;2022-07-29T12:51:59;40.20;27.00
65582;DHT22;52231;40.090;18.348;2022-07-29T12:54:31;40.00;27.30
65582;DHT22;52231;40.090;18.348;2022-07-29T12:57:00;39.90;27.70
65582;DHT22;52231;40.090;18.348;2022-07-29T12:59:34;39.70;28.30
65582;DHT22;52231;40.090;18.348;2022-07-29T13:02:06;39.90;28.10
65582;DHT22;52231;40.090;18.348;2022-07-29T13:04:35;40.10;28.30
65582;DHT22;52231;40.090;18.348;2022-07-29T13:07:06;40.10;28.60
65582;DHT22;52231;40.090;18.348;2022-07-29T13:09:38;40.10;27.90
65582;DHT22;52231;40.090;18.348;2022-07-29T13:12:09;40.20;27.60
65582;DHT22;52231;40.090;18.348;2022-07-29T13:14:44;40.10;29.20
65582;DHT22;52231;40.090;18.348;2022-07-29T13:17:16;39.90;29.40
65582;DHT22;52231;40.090;18.348;2022-07-29T13:19:48;39.60;29.90
65582;DHT22;52231;40.090;18.348;2022-07-29T13:22:23;39.40;31.00
65582;DHT22;52231;40.090;18.348;2022-07-29T13:24:56;39.30;30.30
65582;DHT22;52231;40.090;18.348;2022-07-29T13:27:27;39.10;31.20
65582;DHT22;52231;40.090;18.348;2022-07-29T13:30:09;39.00;31.70
65582;DHT22;52231;40.090;18.348;2022-07-29T13:32:38;38.80;31.00
65582;DHT22;52231;40.090;18.348;2022-07-29T13:35:10;38.80;31.00
65582;DHT22;52231;40.090;18.348;2022-07-29T13:37:43;38.70;30.90
65582;DHT22;52231;40.090;18.348;2022-07-29T13:40:12;38.60;32.10
65582;DHT22;52231;40.090;18.348;2022-07-29T13:42:42;38.40;32.80
65582;DHT22;52231;40.090;18.348;2022-07-29T13:45:11;38.10;32.60
65582;DHT22;52231;40.090;18.348;2022-07-29T13:47:42;38.00;32.40
65582;DHT22;52231;40.090;18.348;2022-07-29T13:50:16;37.80;32.60
65582;DHT22;52231;40.090;18.348;2022-07-29T13:52:45;37.40;32.60
65582;DHT22;52231;40.090;18.348;2022-07-29T13:55:16;37.30;33.10
65582;DHT22;52231;40.090;18.348;2022-07-29T13:57:46;37.20;33.60
65582;DHT22;52231;40.090;18.348;2022-07-29T14:00:15;36.90;33.90
65582;DHT22;52231;40.090;18.348;2022-07-29T14:02:45;36.70;33.60
65582;DHT22;52231;40.090;18.348;2022-07-29T14:05:14;36.80;34.00
65582;DHT22;52231;40.090;18.348;2022-07-29T14:07:43;36.60;34.20
65582;DHT22;52231;40.090;18.348;2022-07-29T14:10:15;36.50;34.70
65582;DHT22;52231;40.090;18.348;2022-07-29T14:12:46;36.40;35.20
65582;DHT22;52231;40.090;18.348;2022-07-29T14:15:15;36.30;35.60
65582;DHT22;52231;40.090;18.348;2022-07-29T14:17:44;36.30;35.60
65582;DHT22;52231;40.090;18.348;2022-07-29T14:20:12;36.00;36.20
65582;DHT22;52231;40.090;18.348;2022-07-29T14:22:41;35.90;36.30
65582;DHT22;52231;40.090;18.348;2022-07-29T14:25:10;35.80;36.80
65582;DHT22;52231;40.090;18.348;2022-07-29T14:27:39;35.80;35.40
65582;DHT22;52231;40.090;18.348;2022-07-29T14:30:08;35.80;36.70
65582;DHT22;52231;40.090;18.348;2022-07-29T14:32:37;35.90;36.80
65582;DHT22;52231;40.090;18.348;2022-07-29T14:35:06;36.00;37.10
65582;DHT22;52231;40.090;18.348;2022-07-29T14:37:36;35.90;35.40
65582;DHT22;52231;40.090;18.348;2022-07-29T14:40:08;35.80;36.90
65582;DHT22;52231;40.090;18.348;2022-07-29T14:42:38;35.80;37.20
65582;DHT22;52231;40.090;18.348;2022-07-29T14:45:10;35.60;36.90
65582;DHT22;52231;40.090;18.348;2022-07-29T14:47:46;35.40;38.10
65582;DHT22;52231;40.090;18.348;2022-07-29T14:50:19;35.40;38.10
65582;DHT22;52231;40.090;18.348;2022-07-29T14:52:48;35.50;37.90
65582;DHT22;52231;40.090;18.348;2022-07-29T14:55:16;35.60;37.30
65582;DHT22;52231;40.090;18.348;2022-07-29T14:57:45;35.50;37.10
65582;DHT22;52231;40.090;18.348;2022-07-29T15:00:15;35.30;36.90
65582;DHT22;52231;40.090;18.348;2022-07-29T15:02:44;35.30;38.60
65582;DHT22;52231;40.090;18.348;2022-07-29T15:05:29;35.10;37.60
65582;DHT22;52231;40.090;18.348;2022-07-29T15:07:59;35.00;35.90
65582;DHT22;52231;40.090;18.348;2022-07-29T15:10:28;35.00;36.00
65582;DHT22;52231;40.090;18.348;2022-07-29T15:12:57;35.00;37.20
65582;DHT22;52231;40.090;18.348;2022-07-29T15:15:29;34.80;37.50
65582;DHT22;52231;40.090;18.348;2022-07-29T15:17:58;34.80;38.50
65582;DHT22;52231;40.090;18.348;2022-07-29T15:20:27;34.70;38.50
65582;DHT22;52231;40.090;18.348;2022-07-29T15:22:55;34.50;38.40
65582;DHT22;52231;40.090;18.348;2022-07-29T15:25:25;34.50;37.70
65582;DHT22;52231;40.090;18.348;2022-07-29T15:27:55;34.40;38.70
65582;DHT22;52231;40.090;18.348;2022-07-29T15:30:29;34.30;38.80
65582;DHT22;52231;40.090;18.348;2022-07-29T15:32:57;34.30;38.80
65582;DHT22;52231;40.090;18.348;2022-07-29T15:35:26;34.20;38.70
65582;DHT22;52231;40.090;18.348;2022-07-29T15:37:55;34.20;39.30
65582;DHT22;52231;40.090;18.348;2022-07-29T15:40:24;34.00;39.70
65582;DHT22;52231;40.090;18.348;2022-07-29T15:42:57;33.90;39.40
65582;DHT22;52231;40.090;18.348;2022-07-29T15:45:29;33.80;39.60
65582;DHT22;52231;40.090;18.348;2022-07-29T15:48:00;33.80;39.50
65582;DHT22;52231;40.090;18.348;2022-07-29T15:50:29;33.70;39.50
65582;DHT22;52231;40.090;18.348;2022-07-29T15:52:59;33.50;39.70
65582;DHT22;52231;40.090;18.348;2022-07-29T15:55:28;33.50;39.60
65582;DHT22;52231;40.090;18.348;2022-07-29T15:57:56;33.40;38.80
65582;DHT22;52231;40.090;18.348;2022-07-29T16:00:28;33.40;38.50
65582;DHT22;52231;40.090;18.348;2022-07-29T16:02:57;33.40;38.50
65582;DHT22;52231;40.090;18.348;2022-07-29T16:05:25;33.30;39.00
65582;DHT22;52231;40.090;18.348;2022-07-29T16:08:15;33.30;39.00
65582;DHT22;52231;40.090;18.348;2022-07-29T16:10:43;33.30;39.60
65582;DHT22;52231;40.090;18.348;2022-07-29T16:13:12;33.20;38.30
65582;DHT22;52231;40.090;18.348;2022-07-29T16:15:40;33.20;38.80
65582;DHT22;52231;40.090;18.348;2022-07-29T16:18:09;33.20;38.80
65582;DHT22;52231;40.090;18.348;2022-07-29T16:20:39;33.10;39.20
65582;DHT22;52231;40.090;18.348;2022-07-29T16:23:08;33.00;39.70